createdAt,value
2018-11-13T00:00:23.798Z,49.73
2018-11-13T00:02:53.567Z,47.27
2018-11-13T00:05:23.453Z,48.43
2018-11-13T00:07:52.697Z,46.50
2018-11-13T00:10:21.845Z,49.47
2018-11-13T00:12:51.279Z,46.57
2018-11-13T00:15:20.605Z,43.63
2018-11-13T00:17:49.846Z,45.27
2018-11-13T00:20:19.677Z,45.37
2018-11-13T00:22:49.153Z,47.27
2018-11-13T00:25:19.430Z,49.67
2018-11-13T00:27:48.768Z,49.23
2018-11-13T00:30:20.149Z,46.97
2018-11-13T00:32:49.607Z,49.17
2018-11-13T00:35:19.314Z,46.33
2018-11-13T00:37:49.402Z,46.60
2018-11-13T00:40:19.252Z,46.53
2018-11-13T00:42:48.861Z,45.70
2018-11-13T00:45:18.289Z,47.63
2018-11-13T00:47:47.795Z,45.90
2018-11-13T00:50:18.091Z,45.77
2018-11-13T00:52:47.731Z,46.23
2018-11-13T00:55:17.014Z,47.77
2018-11-13T00:57:46.407Z,49.17
2018-11-13T01:00:17.278Z,50.93
2018-11-13T01:02:46.747Z,50.40
2018-11-13T01:05:18.061Z,47.80
2018-11-13T01:07:48.138Z,47.60
2018-11-13T01:10:18.387Z,50.17
2018-11-13T01:12:48.050Z,45.77
2018-11-13T01:15:18.679Z,41.80
2018-11-13T01:17:48.480Z,43.33
2018-11-13T01:20:18.309Z,40.73
2018-11-13T01:22:47.403Z,40.67
2018-11-13T01:25:17.261Z,39.10
2018-11-13T01:27:46.996Z,39.10
2018-11-13T01:30:16.613Z,38.10
2018-11-13T01:32:46.117Z,38.87
2018-11-13T01:35:16.772Z,39.23
2018-11-13T01:37:46.074Z,36.20
2018-11-13T01:40:17.085Z,35.07
2018-11-13T01:42:46.206Z,32.47
2018-11-13T01:45:16.636Z,30.53
2018-11-13T01:47:45.713Z,27.13
2018-11-13T01:50:15.195Z,25.20
2018-11-13T01:52:44.730Z,25.53
2018-11-13T01:55:15.069Z,25.90
2018-11-13T01:57:44.624Z,24.17
2018-11-13T02:00:19.846Z,20.17
2018-11-13T02:02:50.335Z,20.33
2018-11-13T02:05:20.734Z,20.27
2018-11-13T02:07:50.474Z,19.33
2018-11-13T02:10:19.820Z,20.33
2018-11-13T02:12:49.329Z,19.30
2018-11-13T02:15:19.203Z,18.33
2018-11-13T02:17:48.501Z,18.43
2018-11-13T02:20:19.189Z,17.47
2018-11-13T02:22:48.327Z,17.57
2018-11-13T02:25:18.585Z,17.23
2018-11-13T02:27:48.014Z,18.60
2018-11-13T02:30:18.580Z,18.40
2018-11-13T02:32:48.134Z,24.20
2018-11-13T02:35:17.615Z,29.63
2018-11-13T02:37:47.278Z,29.27
2018-11-13T02:40:16.301Z,31.63
2018-11-13T02:42:45.683Z,30.90
2018-11-13T02:45:16.988Z,29.20
2018-11-13T02:47:46.246Z,29.03
2018-11-13T02:50:17.669Z,29.30
2018-11-13T02:52:47.013Z,27.90
2018-11-13T02:55:16.192Z,32.67
2018-11-13T02:57:46.063Z,28.90
2018-11-13T03:00:19.535Z,29.40
2018-11-13T03:02:48.989Z,26.93
2018-11-13T03:05:19.433Z,26.47
2018-11-13T03:07:48.968Z,24.47
2018-11-13T03:10:19.122Z,26.03
2018-11-13T03:12:48.581Z,24.47
2018-11-13T03:15:18.753Z,24.93
2018-11-13T03:17:48.505Z,24.27
2018-11-13T03:20:18.794Z,27.17
2018-11-13T03:22:48.547Z,24.57
2018-11-13T03:25:19.020Z,25.47
2018-11-13T03:27:48.327Z,24.00
2018-11-13T03:30:25.653Z,26.63
2018-11-13T03:32:55.207Z,23.90
2018-11-13T03:35:24.456Z,21.53
2018-11-13T03:37:54.138Z,22.67
2018-11-13T03:40:23.378Z,22.43
2018-11-13T03:42:52.752Z,23.17
2018-11-13T03:45:22.010Z,26.07
2018-11-13T03:47:51.340Z,27.17
2018-11-13T03:50:21.825Z,28.33
2018-11-13T03:52:51.289Z,29.60
2018-11-13T03:55:20.963Z,31.03
2018-11-13T03:57:51.035Z,31.07
2018-11-13T04:00:22.149Z,29.13
2018-11-13T04:02:51.675Z,30.50
2018-11-13T04:05:21.646Z,28.80
2018-11-13T04:07:53.065Z,28.77
2018-11-13T04:10:22.788Z,30.43
2018-11-13T04:12:52.117Z,30.57
2018-11-13T04:15:22.742Z,30.80
2018-11-13T04:17:52.050Z,29.20
2018-11-13T04:20:22.128Z,30.60
2018-11-13T04:22:51.548Z,29.97
2018-11-13T04:25:20.820Z,29.97
2018-11-13T04:27:50.026Z,29.10
2018-11-13T04:30:19.807Z,29.57
2018-11-13T04:32:48.994Z,29.77
2018-11-13T04:35:18.681Z,30.43
2018-11-13T04:37:48.060Z,29.03
2018-11-13T04:40:18.440Z,29.70
2018-11-13T04:42:49.057Z,30.97
2018-11-13T04:45:19.260Z,31.17
2018-11-13T04:47:49.097Z,31.13
2018-11-13T04:50:19.063Z,30.37
2018-11-13T04:52:48.342Z,29.80
2018-11-13T04:55:18.165Z,33.07
2018-11-13T04:57:48.194Z,33.90
2018-11-13T05:00:21.532Z,36.03
2018-11-13T05:02:50.989Z,33.10
2018-11-13T05:05:21.138Z,35.33
2018-11-13T05:07:51.682Z,35.03
2018-11-13T05:10:21.126Z,36.17
2018-11-13T05:12:50.550Z,36.87
2018-11-13T05:15:20.163Z,34.27
2018-11-13T05:17:49.794Z,33.67
2018-11-13T05:20:20.358Z,28.90
2018-11-13T05:22:49.745Z,24.37
2018-11-13T05:25:20.250Z,24.13
2018-11-13T05:27:50.173Z,22.93
2018-11-13T05:30:20.955Z,23.57
2018-11-13T05:32:50.707Z,24.00
2018-11-13T05:35:21.155Z,24.03
2018-11-13T05:37:51.451Z,25.63
2018-11-13T05:40:21.798Z,25.60
2018-11-13T05:42:51.783Z,25.37
2018-11-13T05:45:23.676Z,24.97
2018-11-13T05:47:55.114Z,23.83
2018-11-13T05:50:24.641Z,26.70
2018-11-13T05:52:54.506Z,24.50
2018-11-13T05:55:23.858Z,24.23
2018-11-13T05:57:53.325Z,25.10
2018-11-13T06:00:29.596Z,26.03
2018-11-13T06:02:59.229Z,26.80
2018-11-13T06:05:28.445Z,24.90
2018-11-13T06:07:57.779Z,24.37
2018-11-13T06:10:27.121Z,25.30
2018-11-13T06:12:56.403Z,26.87
2018-11-13T06:15:25.712Z,27.37
2018-11-13T06:17:56.751Z,27.80
2018-11-13T06:20:26.095Z,29.33
2018-11-13T06:22:55.455Z,29.67
2018-11-13T06:25:24.902Z,27.53
2018-11-13T06:27:54.272Z,26.87
2018-11-13T06:30:25.491Z,27.67
2018-11-13T06:32:54.931Z,29.33
2018-11-13T06:35:24.888Z,30.30
2018-11-13T06:37:54.031Z,30.70
2018-11-13T06:40:23.323Z,29.60
2018-11-13T06:42:53.717Z,31.37
2018-11-13T06:45:23.682Z,27.63
2018-11-13T06:47:53.165Z,28.97
2018-11-13T06:50:22.694Z,27.83
2018-11-13T06:52:51.982Z,29.07
2018-11-13T06:55:40.433Z,26.90
2018-11-13T06:58:09.637Z,29.27
2018-11-13T07:00:39.885Z,28.47
2018-11-13T07:03:09.233Z,26.67
2018-11-13T07:05:38.446Z,27.33
2018-11-13T07:08:07.701Z,31.17
2018-11-13T07:10:37.003Z,29.77
2018-11-13T07:13:06.578Z,28.27
2018-11-13T07:15:35.994Z,29.90
2018-11-13T07:18:05.542Z,31.07
2018-11-13T07:20:35.580Z,31.80
2018-11-13T07:23:04.797Z,33.13
2018-11-13T07:25:34.191Z,30.23
2018-11-13T07:28:03.646Z,30.77
2018-11-13T07:30:33.409Z,30.87
2018-11-13T07:33:02.703Z,31.37
2018-11-13T07:35:31.890Z,37.53
2018-11-13T07:38:01.421Z,37.83
2018-11-13T07:40:30.697Z,41.80
2018-11-13T07:42:59.810Z,42.80
2018-11-13T07:45:29.324Z,43.10
2018-11-13T07:47:58.596Z,44.60
2018-11-13T07:50:27.903Z,48.20
2018-11-13T07:52:57.121Z,40.27
2018-11-13T07:55:26.493Z,32.87
2018-11-13T07:57:55.782Z,31.43
2018-11-13T08:00:25.457Z,30.17
2018-11-13T08:02:55.802Z,36.50
2018-11-13T08:05:24.914Z,43.07
2018-11-13T08:07:54.304Z,38.93
2018-11-13T08:10:23.568Z,36.27
2018-11-13T08:12:53.182Z,32.20
2018-11-13T08:15:22.609Z,35.70
2018-11-13T08:17:51.841Z,34.17
2018-11-13T08:20:21.124Z,28.63
2018-11-13T08:22:50.475Z,27.53
2018-11-13T08:25:20.028Z,26.83
2018-11-13T08:27:49.258Z,25.23
2018-11-13T08:30:19.417Z,24.20
2018-11-13T08:32:48.742Z,24.10
2018-11-13T08:35:18.054Z,22.63
2018-11-13T08:37:47.598Z,28.07
2018-11-13T08:40:17.982Z,25.37
2018-11-13T08:42:47.759Z,30.07
2018-11-13T08:45:17.174Z,104.00
2018-11-13T08:47:46.396Z,91.03
2018-11-13T08:50:16.434Z,53.60
2018-11-13T08:52:46.605Z,36.33
2018-11-13T08:55:16.395Z,29.60
2018-11-13T08:57:45.759Z,28.47
2018-11-13T09:00:16.273Z,29.93
2018-11-13T09:02:45.983Z,31.27
2018-11-13T09:05:15.274Z,32.33
2018-11-13T09:07:45.057Z,32.50
2018-11-13T09:10:15.814Z,33.50
2018-11-13T09:12:45.454Z,32.83
2018-11-13T09:15:16.157Z,33.07
2018-11-13T09:17:45.736Z,33.33
2018-11-13T09:20:16.221Z,34.53
2018-11-13T09:22:45.473Z,33.83
2018-11-13T09:25:16.125Z,35.67
2018-11-13T09:27:45.525Z,36.30
2018-11-13T09:30:16.380Z,39.33
2018-11-13T09:32:46.120Z,42.40
2018-11-13T09:35:16.254Z,40.60
2018-11-13T09:37:45.610Z,65.90
2018-11-13T09:40:18.021Z,139.63
2018-11-13T09:42:48.484Z,49.63
2018-11-13T09:45:18.178Z,48.77
2018-11-13T09:47:47.481Z,47.37
2018-11-13T09:50:18.033Z,45.87
2018-11-13T09:52:48.433Z,49.57
2018-11-13T09:55:18.797Z,51.30
2018-11-13T09:57:48.073Z,47.97
2018-11-13T10:00:19.432Z,49.97
2018-11-13T10:02:50.467Z,50.97
2018-11-13T10:05:20.316Z,51.00
2018-11-13T10:07:49.993Z,49.27
2018-11-13T10:10:19.259Z,49.43
2018-11-13T10:12:48.760Z,46.63
2018-11-13T10:15:33.309Z,45.73
2018-11-13T10:18:03.071Z,53.90
2018-11-13T10:20:33.007Z,53.53
2018-11-13T10:23:02.265Z,50.33
2018-11-13T10:25:31.617Z,45.23
2018-11-13T10:28:00.896Z,44.30
2018-11-13T10:30:30.447Z,43.73
2018-11-13T10:32:59.633Z,41.83
2018-11-13T10:35:28.807Z,40.80
2018-11-13T10:37:57.946Z,40.87
2018-11-13T10:40:27.212Z,38.60
2018-11-13T10:42:56.530Z,39.87
2018-11-13T10:45:27.542Z,38.97
2018-11-13T10:47:56.759Z,40.10
2018-11-13T10:50:26.813Z,39.20
2018-11-13T10:52:56.590Z,36.00
2018-11-13T10:55:25.774Z,37.17
2018-11-13T10:57:55.581Z,37.00
2018-11-13T11:00:32.965Z,35.07
2018-11-13T11:03:09.541Z,37.40
2018-11-13T11:05:38.762Z,36.80
2018-11-13T11:08:08.021Z,37.90
2018-11-13T11:10:37.454Z,36.83
2018-11-13T11:13:07.159Z,34.90
2018-11-13T11:15:36.562Z,36.23
2018-11-13T11:18:05.854Z,36.87
2018-11-13T11:20:35.299Z,66.67
2018-11-13T11:23:04.653Z,101.80
2018-11-13T11:25:34.000Z,89.23
2018-11-13T11:28:04.511Z,76.10
2018-11-13T11:30:33.893Z,80.77
2018-11-13T11:33:03.095Z,93.20
2018-11-13T11:35:32.450Z,69.23
2018-11-13T11:38:02.214Z,60.70
2018-11-13T11:40:31.484Z,52.57
2018-11-13T11:43:00.984Z,43.63
2018-11-13T11:45:30.329Z,44.17
2018-11-13T11:47:59.424Z,39.43
2018-11-13T11:50:28.957Z,48.77
2018-11-13T11:52:58.295Z,47.00
2018-11-13T11:55:27.509Z,50.90
2018-11-13T11:57:56.880Z,48.07
2018-11-13T12:00:34.439Z,38.93
2018-11-13T12:03:04.243Z,36.47
2018-11-13T12:05:33.568Z,35.30
2018-11-13T12:08:02.715Z,33.23
2018-11-13T12:10:31.991Z,28.67
2018-11-13T12:13:01.309Z,19.07
2018-11-13T12:15:30.495Z,17.43
2018-11-13T12:17:59.907Z,19.00
2018-11-13T12:20:29.200Z,19.93
2018-11-13T12:22:58.434Z,25.77
2018-11-13T12:25:27.659Z,23.77
2018-11-13T12:27:56.907Z,29.27
2018-11-13T12:30:26.010Z,33.13
2018-11-13T12:32:55.548Z,24.73
2018-11-13T12:35:24.898Z,28.60
2018-11-13T12:37:54.113Z,32.70
2018-11-13T12:40:24.420Z,30.87
2018-11-13T12:42:53.620Z,32.53
2018-11-13T12:45:22.821Z,31.40
2018-11-13T12:47:52.350Z,29.80
2018-11-13T12:50:21.847Z,28.37
2018-11-13T12:52:51.142Z,25.83
2018-11-13T12:55:23.383Z,21.90
2018-11-13T12:57:52.834Z,21.50
2018-11-13T13:00:23.945Z,16.80
2018-11-13T13:02:53.153Z,14.37
2018-11-13T13:05:22.453Z,15.63
2018-11-13T13:07:51.950Z,14.07
2018-11-13T13:10:21.783Z,14.93
2018-11-13T13:12:51.081Z,16.70
2018-11-13T13:15:20.922Z,16.40
2018-11-13T13:17:50.063Z,15.20
2018-11-13T13:20:23.931Z,15.70
2018-11-13T13:22:53.308Z,17.70
2018-11-13T13:25:23.723Z,21.27
2018-11-13T13:27:53.406Z,17.40
2018-11-13T13:30:24.002Z,19.20
2018-11-13T13:32:53.244Z,22.70
2018-11-13T13:35:57.908Z,20.70
2018-11-13T13:38:27.194Z,14.27
2018-11-13T13:40:57.747Z,15.63
2018-11-13T13:43:27.710Z,17.43
2018-11-13T13:45:56.832Z,18.03
2018-11-13T13:48:26.480Z,18.07
2018-11-13T13:50:55.805Z,25.13
2018-11-13T13:53:26.010Z,23.90
2018-11-13T13:55:55.337Z,20.63
2018-11-13T13:58:25.133Z,20.87
2018-11-13T14:00:55.250Z,17.13
2018-11-13T14:03:24.675Z,16.13
2018-11-13T14:05:53.815Z,17.33
2018-11-13T14:08:23.291Z,15.33
2018-11-13T14:10:52.589Z,13.40
2018-11-13T14:13:21.693Z,12.30
2018-11-13T14:15:51.306Z,11.73
2018-11-13T14:18:21.766Z,12.80
2018-11-13T14:20:51.332Z,9.83
2018-11-13T14:23:20.629Z,10.50
2018-11-13T14:25:49.838Z,14.63
2018-11-13T14:28:19.085Z,12.80
2018-11-13T14:30:48.220Z,11.20
2018-11-13T14:33:17.322Z,11.00
2018-11-13T14:35:47.046Z,12.70
2018-11-13T14:38:16.476Z,10.63
2018-11-13T14:40:46.922Z,14.30
2018-11-13T14:43:16.217Z,15.20
2018-11-13T14:45:45.615Z,26.10
2018-11-13T14:48:14.961Z,17.43
2018-11-13T14:50:44.367Z,11.93
2018-11-13T14:53:13.890Z,13.70
2018-11-13T14:55:44.722Z,18.60
2018-11-13T14:58:15.384Z,23.87
2018-11-13T15:00:45.163Z,33.67
2018-11-13T15:03:15.934Z,30.03
2018-11-13T15:05:45.269Z,33.77
2018-11-13T15:08:14.360Z,35.03
2018-11-13T15:10:51.312Z,28.53
2018-11-13T15:13:21.429Z,14.57
2018-11-13T15:15:50.808Z,14.80
2018-11-13T15:18:20.093Z,28.47
2018-11-13T15:20:50.047Z,35.97
2018-11-13T15:23:19.527Z,29.83
2018-11-13T15:25:48.821Z,35.50
2018-11-13T15:28:18.107Z,58.27
2018-11-13T15:30:49.171Z,41.40
2018-11-13T15:33:20.186Z,41.57
2018-11-13T15:35:49.651Z,21.60
2018-11-13T15:38:18.749Z,16.30
2018-11-13T15:40:47.969Z,13.43
2018-11-13T15:43:17.245Z,11.07
2018-11-13T15:45:46.557Z,10.47
2018-11-13T15:48:16.267Z,14.73
2018-11-13T15:50:45.629Z,26.87
2018-11-13T15:53:14.873Z,18.20
2018-11-13T15:55:44.020Z,10.87
2018-11-13T15:58:13.620Z,6.30
2018-11-13T16:00:43.298Z,6.80
2018-11-13T16:03:14.510Z,6.30
2018-11-13T16:05:45.678Z,5.43
2018-11-13T16:08:15.164Z,4.83
2018-11-13T16:10:44.403Z,5.10
2018-11-13T16:13:13.759Z,8.07
2018-11-13T16:15:43.685Z,5.90
2018-11-13T16:18:14.348Z,6.00
2018-11-13T16:20:43.821Z,5.50
2018-11-13T16:23:13.328Z,5.80
2018-11-13T16:25:42.747Z,5.53
2018-11-13T16:28:13.017Z,6.70
2018-11-13T16:30:42.480Z,5.83
2018-11-13T16:33:12.210Z,5.43
2018-11-13T16:35:41.840Z,5.80
2018-11-13T16:38:11.895Z,6.23
2018-11-13T16:40:41.451Z,6.13
2018-11-13T16:43:11.047Z,6.53
2018-11-13T16:45:40.445Z,5.77
2018-11-13T16:48:09.746Z,5.40
2018-11-13T16:50:41.177Z,6.07
2018-11-13T16:53:10.740Z,6.37
2018-11-13T16:55:45.875Z,6.57
2018-11-13T16:58:22.553Z,7.53
2018-11-13T17:00:52.234Z,6.13
2018-11-13T17:03:21.783Z,6.57
2018-11-13T17:05:51.361Z,5.70
2018-11-13T17:08:21.029Z,5.73
2018-11-13T17:10:50.349Z,5.40
2018-11-13T17:13:20.824Z,6.40
2018-11-13T17:15:50.138Z,5.37
2018-11-13T17:18:19.453Z,5.80
2018-11-13T17:20:48.711Z,5.73
2018-11-13T17:23:17.855Z,5.77
2018-11-13T17:25:47.027Z,5.77
2018-11-13T17:28:16.897Z,5.87
2018-11-13T17:30:46.150Z,5.83
2018-11-13T17:33:16.070Z,5.60
2018-11-13T17:35:45.907Z,5.80
2018-11-13T17:38:15.235Z,6.10
2018-11-13T17:40:44.478Z,5.87
2018-11-13T17:43:13.844Z,6.07
2018-11-13T17:45:42.979Z,5.77
2018-11-13T17:48:12.989Z,7.40
2018-11-13T17:50:43.530Z,9.70
2018-11-13T17:53:13.178Z,6.60
2018-11-13T17:55:42.739Z,6.37
2018-11-13T17:58:14.175Z,6.20
2018-11-13T18:00:47.398Z,6.77
2018-11-13T18:03:17.734Z,6.53
2018-11-13T18:05:47.827Z,5.93
2018-11-13T18:08:17.038Z,5.67
2018-11-13T18:10:47.153Z,6.00
2018-11-13T18:13:16.512Z,6.10
2018-11-13T18:15:45.674Z,7.13
2018-11-13T18:18:15.012Z,6.57
2018-11-13T18:20:44.365Z,6.20
2018-11-13T18:23:13.651Z,5.33
2018-11-13T18:25:44.124Z,4.87
2018-11-13T18:28:13.802Z,5.80
2018-11-13T18:30:52.102Z,5.60
2018-11-13T18:33:21.398Z,7.67
2018-11-13T18:35:50.674Z,14.43
2018-11-13T18:38:20.294Z,17.00
2018-11-13T18:40:49.769Z,20.17
2018-11-13T18:43:20.382Z,20.63
2018-11-13T18:45:54.082Z,13.77
2018-11-13T18:48:23.650Z,16.47
2018-11-13T18:50:53.870Z,12.80
2018-11-13T18:53:23.388Z,7.57
2018-11-13T18:55:52.767Z,6.00
2018-11-13T18:58:21.972Z,6.27
2018-11-13T19:00:51.518Z,5.23
2018-11-13T19:03:27.169Z,5.90
2018-11-13T19:05:56.640Z,6.43
2018-11-13T19:08:26.934Z,6.13
2018-11-13T19:10:56.332Z,6.90
2018-11-13T19:13:27.033Z,5.40
2018-11-13T19:15:59.053Z,4.50
2018-11-13T19:18:28.427Z,5.30
2018-11-13T19:20:58.341Z,4.83
2018-11-13T19:23:27.813Z,6.07
2018-11-13T19:25:57.140Z,6.57
2018-11-13T19:28:27.214Z,6.07
2018-11-13T19:30:56.670Z,5.50
2018-11-13T19:33:27.180Z,5.47
2018-11-13T19:35:56.838Z,6.33
2018-11-13T19:38:27.421Z,7.87
2018-11-13T19:40:57.259Z,11.27
2018-11-13T19:43:27.226Z,14.27
2018-11-13T19:45:56.790Z,15.03
2018-11-13T19:48:26.311Z,8.53
2018-11-13T19:50:55.588Z,6.87
2018-11-13T19:53:25.765Z,5.83
2018-11-13T19:55:56.567Z,6.20
2018-11-13T19:58:26.762Z,6.10
2018-11-13T20:00:56.994Z,6.47
2018-11-13T20:03:26.803Z,5.73
2018-11-13T20:05:56.206Z,5.83
2018-11-13T20:08:27.917Z,5.83
2018-11-13T20:10:57.439Z,5.33
2018-11-13T20:13:26.515Z,4.83
2018-11-13T20:15:57.943Z,5.07
2018-11-13T20:18:28.868Z,6.13
2018-11-13T20:20:58.291Z,5.23
2018-11-13T20:23:27.605Z,5.63
2018-11-13T20:25:56.843Z,5.10
2018-11-13T20:28:26.214Z,5.13
2018-11-13T20:30:55.399Z,4.70
2018-11-13T20:33:25.195Z,4.00
2018-11-13T20:35:54.760Z,4.33
2018-11-13T20:38:24.065Z,3.87
2018-11-13T20:40:53.497Z,3.97
2018-11-13T20:43:23.001Z,3.50
2018-11-13T20:45:52.406Z,3.40
2018-11-13T20:48:22.105Z,3.30
2018-11-13T20:50:51.531Z,3.00
2018-11-13T20:53:20.814Z,3.57
2018-11-13T20:55:49.998Z,3.57
2018-11-13T20:58:19.351Z,3.50
2018-11-13T21:00:48.709Z,3.73
2018-11-13T21:03:18.073Z,3.50
2018-11-13T21:05:47.598Z,3.37
2018-11-13T21:08:16.859Z,3.47
2018-11-13T21:10:46.093Z,5.10
2018-11-13T21:13:15.336Z,3.90
2018-11-13T21:15:44.699Z,3.60
2018-11-13T21:18:13.951Z,3.40
2018-11-13T21:20:43.386Z,3.90
2018-11-13T21:23:12.473Z,3.30
2018-11-13T21:25:41.717Z,3.50
2018-11-13T21:28:12.143Z,3.60
2018-11-13T21:30:41.446Z,3.40
2018-11-13T21:33:10.903Z,3.30
2018-11-13T21:35:40.062Z,2.57
2018-11-13T21:38:09.311Z,2.97
2018-11-13T21:40:38.514Z,3.17
2018-11-13T21:43:08.029Z,3.20
2018-11-13T21:45:37.228Z,2.90
2018-11-13T21:48:06.856Z,2.90
2018-11-13T21:50:36.194Z,3.40
2018-11-13T21:53:05.657Z,2.87
2018-11-13T21:55:34.909Z,3.63
2018-11-13T21:58:04.275Z,3.20
2018-11-13T22:00:34.367Z,3.20
2018-11-13T22:03:08.100Z,3.37
2018-11-13T22:05:37.889Z,2.87
2018-11-13T22:08:07.295Z,2.97
2018-11-13T22:10:36.899Z,3.00
2018-11-13T22:13:06.138Z,3.17
2018-11-13T22:15:35.464Z,3.20
2018-11-13T22:18:04.718Z,3.27
2018-11-13T22:20:34.082Z,3.13
2018-11-13T22:23:03.286Z,2.97
2018-11-13T22:25:32.603Z,3.07
2018-11-13T22:28:01.840Z,2.97
2018-11-13T22:30:32.178Z,2.87
2018-11-13T22:33:01.397Z,2.77
2018-11-13T22:35:30.577Z,2.90
2018-11-13T22:38:00.080Z,2.90
2018-11-13T22:40:29.603Z,3.10
2018-11-13T22:42:59.687Z,3.00
2018-11-13T22:45:29.770Z,3.83
2018-11-13T22:47:59.207Z,3.37
2018-11-13T22:50:29.985Z,3.10
2018-11-13T22:52:59.165Z,3.40
2018-11-13T22:55:28.302Z,3.03
2018-11-13T22:57:58.580Z,2.97
2018-11-13T23:00:35.263Z,3.00
2018-11-13T23:03:05.087Z,6.87
2018-11-13T23:05:34.302Z,9.17
2018-11-13T23:08:03.495Z,8.73
2018-11-13T23:10:32.962Z,8.77
2018-11-13T23:13:02.259Z,6.90
2018-11-13T23:15:31.563Z,4.73
2018-11-13T23:18:01.024Z,4.43
2018-11-13T23:20:30.267Z,4.27
2018-11-13T23:22:59.488Z,4.33
2018-11-13T23:25:28.831Z,4.50
2018-11-13T23:27:58.219Z,3.80
2018-11-13T23:30:28.588Z,4.63
2018-11-13T23:32:58.591Z,3.80
2018-11-13T23:35:27.709Z,3.50
2018-11-13T23:37:58.307Z,4.03
2018-11-13T23:40:28.477Z,3.67
2018-11-13T23:42:57.850Z,3.87
2018-11-13T23:45:27.472Z,3.43
2018-11-13T23:47:56.699Z,3.13
2018-11-13T23:50:26.296Z,3.60
2018-11-13T23:52:55.523Z,4.03
2018-11-13T23:55:24.843Z,3.40
2018-11-13T23:57:54.065Z,3.90
